Currently 59°F in Murrieta, California, USA
59°F
78°F / 40°F
4 mph SW
0.00"
Tuesday, October 27, 2020 10:31 PM PDT

Murrieta, California Weather Summary
Last 36 Hours

Temperature Winds Hourly Humidity Dewpoint
Time Report Norm Report Norm Max Gusts Precip. Rpt. Norm Rpt. Norm Pressure
1Tue 10:31 PM  58.6°F  60°F  4 mph SW  1 mph  8 mph  0.00"  53%  66%  41°F  48°F  N/A
Tue 10:00 PM  59.1°F  60°F  5 mph SW  2 mph  11 mph  0.00"  54%  64%  42°F  48°F  N/A
Tue 09:00 PM  61.6°F  62°F  4 mph SW  2 mph  13 mph  0.00"  40%  62%  36°F  48°F  N/A
Tue 08:00 PM  64.1°F  64°F  calm  3 mph  9 mph  0.00"  25%  59%  26°F  49°F  N/A
Tue 07:00 PM  66.1°F  67°F  calm  4 mph  9 mph  0.00"  26%  56%  29°F  50°F  N/A
Tue 06:00 PM  69.5°F  70°F  2 mph NW  4 mph  9 mph  0.00"  17%  50%  21°F  50°F  N/A
Tue 05:00 PM  73.4°F  74°F  2 mph NE  6 mph  14 mph  0.00"  14%  44%  19°F  49°F  N/A
Tue 04:00 PM  76.5°F  77°F  calm  6 mph  13 mph  0.00"  11%  39%  16°F  49°F  N/A
Tue 03:00 PM  77.3°F  79°F  2 mph E  6 mph  13 mph  0.00"  10%  35%  15°F  48°F  N/A
Tue 02:00 PM  77.6°F  79°F  1 mph N  6 mph  14 mph  0.00"  9%  35%  12°F  48°F  N/A
2Tue 01:52 PM  77.9°F  79°F  calm  5 mph  10 mph  ----  10%  35%  14°F  48°F  N/A
Tue 01:00 PM  76.8°F  78°F  1 mph SW  5 mph  15 mph  0.00"  9%  36%  12°F  48°F  N/A
Tue 12:00 PM  75.2°F  76°F  6 mph SE  4 mph  16 mph  0.00"  10%  40%  12°F  49°F  N/A
Tue 11:00 AM  71.4°F  72°F  7 mph NE  3 mph  9 mph  0.00"  12%  48%  15°F  50°F  N/A
Tue 10:00 AM  63.0°F  66°F  calm  2 mph  4 mph  0.00"  24%  58%  24°F  50°F  N/A
Tue 09:00 AM  51.6°F  60°F  calm  1 mph  none  0.00"  38%  69%  26°F  49°F  N/A
Tue 08:00 AM  43.9°F  55°F  calm  1 mph  1 mph  0.00"  54%  75%  27°F  47°F  N/A
3Tue 07:19 AM  39.7°F  53°F  calm  1 mph  none  ----  50%  76%  22°F  45°F  N/A
Tue 07:00 AM  40.9°F  53°F  calm  1 mph  3 mph  0.00"  51%  75%  24°F  45°F  N/A
Tue 06:00 AM  40.3°F  53°F  calm  1 mph  5 mph  0.00"  46%  75%  20°F  46°F  N/A
Tue 05:00 AM  41.1°F  54°F  calm  1 mph  none  0.00"  46%  74%  21°F  46°F  N/A
Tue 04:00 AM  42.8°F  55°F  calm  1 mph  none  0.00"  37%  73%  17°F  46°F  N/A
Tue 03:00 AM  43.7°F  55°F  calm  1 mph  none  0.00"  38%  72%  19°F  46°F  N/A
Tue 02:00 AM  44.9°F  56°F  calm  1 mph  none  0.00"  36%  71%  18°F  46°F  N/A
Tue 01:00 AM  47.1°F  57°F  calm  1 mph  none  0.00"  32%  70%  18°F  47°F  N/A
Tue 12:00 AM  48.7°F  58°F  calm  1 mph  4 mph  0.00"  29%  69%  16°F  47°F  N/A
Mon 11:00 PM  52.7°F  59°F  calm  1 mph  11 mph  0.00"  24%  67%  15°F  48°F  N/A
Mon 10:00 PM  60.4°F  61°F  1 mph SW  2 mph  16 mph  0.00"  16%  66%  12°F  49°F  N/A
Mon 09:00 PM  60.1°F  62°F  calm  2 mph  13 mph  0.00"  15%  63%  10°F  49°F  N/A
Mon 08:00 PM  60.4°F  64°F  4 mph W  3 mph  16 mph  0.00"  11%  60%  2°F  50°F  N/A
Mon 07:00 PM  62.5°F  67°F  1 mph N  4 mph  20 mph  0.00"  10%  57%  2°F  51°F  N/A
Mon 06:00 PM  62.7°F  71°F  11 mph NW  5 mph  22 mph  0.00"  10%  51%  2°F  51°F  N/A
Mon 05:00 PM  64.2°F  74°F  5 mph NW  6 mph  19 mph  0.00"  10%  44%  5°F  50°F  N/A
Mon 04:00 PM  66.7°F  78°F  calm  6 mph  18 mph  0.00"  10%  39%  6°F  50°F  N/A
Mon 03:00 PM  66.2°F  79°F  8 mph SW  6 mph  19 mph  0.00"  9%  36%  4°F  49°F  N/A
Mon 02:00 PM  67.3°F  79°F  8 mph W  5 mph  19 mph  0.00"  11%  35%  8°F  49°F  N/A
Mon 01:00 PM  68.0°F  78°F  7 mph E  5 mph  18 mph  0.00"  14%  36%  16°F  49°F  N/A
Mon 12:00 PM  65.7°F  76°F  6 mph SE  4 mph  19 mph  0.00"  16%  41%  16°F  50°F  N/A
Mon 11:00 AM  61.0°F  72°F  1 mph N  3 mph  25 mph  0.00"  17%  49%  13°F  51°F  N/A

  1. Current weather data. No green row appears if the current weather data is also the high or low for the current day.
  2. High temperature for the current day.
  3. Low temperature for the current day.

The Murrieta weather pages are a service of WeatherCurrents. Murrieta, California is located in the Temecula Valley, in southwestern Riverside County, at the junctions of the Interstate 15 and 215 highways.
Copyright ©2020  WeatherCurrents. All rights reserved. - Submit questions and comments - Privacy Policy

This page automatically refreshes every 10 minutes.